AUA751 LOWI-LJLJ
Flight info
| Callsign | AUA751 |
|---|---|
| Flight time | 0h 38m |
| Altitude | 28000 |
| Route | RTT DCT VEKEN Y177 DEGUM |
| Aircraft | B738/M-SDE2E3FGHIRWXY/LB1 |
Departure
| Time | 2026-05-04 09:05 |
|---|---|
| Airport | Innsbruck Airport (LOWI) |
Arrival
| Time | 2026-05-04 09:43 |
|---|---|
| Airport | Ljubljana Jože Pučnik Airport (LJLJ) |
| Time | Latitude | Longitude | Altitude | Speed | Heading |
|---|---|---|---|---|---|
| 2026-05-04 08:43 | 47.25845 | 11.35227 | 1898 ft | 0 kts | 171° |
| 2026-05-04 08:50 | 47.25846 | 11.35227 | 1898 ft | 0 kts | 171° |
| 2026-05-04 09:01 | 47.25890 | 11.35170 | 1891 ft | 0 kts | 81° |
| 2026-05-04 09:02 | 47.25897 | 11.35229 | 1906 ft | 14 kts | 81° |
| 2026-05-04 09:02 | 47.25951 | 11.35284 | 1904 ft | 10 kts | 351° |
| 2026-05-04 09:03 | 47.26038 | 11.35264 | 1901 ft | 18 kts | 351° |
| 2026-05-04 09:03 | 47.26117 | 11.35292 | 1900 ft | 9 kts | 72° |
| 2026-05-04 09:03 | 47.26132 | 11.35449 | 1902 ft | 20 kts | 86° |
| 2026-05-04 09:03 | 47.26108 | 11.35643 | 1905 ft | 19 kts | 79° |
| 2026-05-04 09:04 | 47.26166 | 11.35714 | 1898 ft | 14 kts | 306° |
| 2026-05-04 09:04 | 47.26151 | 11.35599 | 1901 ft | 10 kts | 261° |
| 2026-05-04 09:04 | 47.26149 | 11.35577 | 1902 ft | 4 kts | 261° |
| 2026-05-04 09:04 | 47.26106 | 11.35186 | 1895 ft | 82 kts | 261° |
| 2026-05-04 09:05 | 47.25974 | 11.33966 | 1909 ft | 158 kts | 261° |
| 2026-05-04 09:05 | 47.25809 | 11.32225 | 2558 ft | 179 kts | 264° |
| 2026-05-04 09:05 | 47.25908 | 11.30344 | 3514 ft | 190 kts | 277° |
| 2026-05-04 09:05 | 47.26101 | 11.28383 | 4503 ft | 194 kts | 277° |
| 2026-05-04 09:06 | 47.26220 | 11.26406 | 5662 ft | 187 kts | 263° |
| 2026-05-04 09:07 | 47.24216 | 11.32899 | 11872 ft | 209 kts | 74° |
| 2026-05-04 09:08 | 47.24674 | 11.34938 | 12536 ft | 212 kts | 74° |
| 2026-05-04 09:08 | 47.25137 | 11.37027 | 13118 ft | 218 kts | 74° |
| 2026-05-04 09:08 | 47.25624 | 11.39239 | 13381 ft | 240 kts | 74° |
| 2026-05-04 09:08 | 47.26159 | 11.41692 | 13605 ft | 262 kts | 73° |
| 2026-05-04 09:09 | 47.26742 | 11.44363 | 13765 ft | 286 kts | 74° |
| 2026-05-04 09:09 | 47.27979 | 11.50049 | 14665 ft | 299 kts | 73° |
| 2026-05-04 09:09 | 47.28616 | 11.52983 | 15208 ft | 303 kts | 74° |
| 2026-05-04 09:10 | 47.29259 | 11.55953 | 15768 ft | 305 kts | 74° |
| 2026-05-04 09:10 | 47.29904 | 11.58942 | 16284 ft | 308 kts | 74° |
| 2026-05-04 09:10 | 47.30556 | 11.61967 | 16804 ft | 311 kts | 74° |
| 2026-05-04 09:10 | 47.31240 | 11.65003 | 17324 ft | 314 kts | 69° |
| 2026-05-04 09:11 | 47.32256 | 11.67877 | 17820 ft | 318 kts | 60° |
| 2026-05-04 09:11 | 47.33430 | 11.70653 | 18305 ft | 321 kts | 58° |
| 2026-05-04 09:11 | 47.34626 | 11.73421 | 18819 ft | 320 kts | 58° |
| 2026-05-04 09:11 | 47.35798 | 11.76173 | 19242 ft | 322 kts | 59° |
| 2026-05-04 09:12 | 47.36978 | 11.78996 | 19650 ft | 324 kts | 59° |
| 2026-05-04 09:12 | 47.38150 | 11.81838 | 20078 ft | 325 kts | 59° |
| 2026-05-04 09:14 | 47.36432 | 12.05653 | 22163 ft | 410 kts | 134° |
| 2026-05-04 09:14 | 47.34535 | 12.08813 | 22817 ft | 414 kts | 134° |
| 2026-05-04 09:14 | 47.32601 | 12.11998 | 23404 ft | 419 kts | 134° |
| 2026-05-04 09:14 | 47.30654 | 12.15210 | 23886 ft | 425 kts | 133° |
| 2026-05-04 09:15 | 47.28707 | 12.18442 | 24430 ft | 427 kts | 133° |
| 2026-05-04 09:15 | 47.26706 | 12.21776 | 24844 ft | 430 kts | 133° |
| 2026-05-04 09:15 | 47.24735 | 12.25080 | 25418 ft | 432 kts | 133° |
| 2026-05-04 09:15 | 47.22772 | 12.28383 | 25832 ft | 437 kts | 133° |
| 2026-05-04 09:17 | 47.06755 | 12.55233 | 28091 ft | 437 kts | 133° |
| 2026-05-04 09:18 | 47.02712 | 12.61962 | 28074 ft | 441 kts | 133° |
| 2026-05-04 09:18 | 46.98656 | 12.68697 | 28090 ft | 440 kts | 133° |
| 2026-05-04 09:19 | 46.94614 | 12.75394 | 28079 ft | 438 kts | 133° |
| 2026-05-04 09:19 | 46.90617 | 12.81999 | 28096 ft | 435 kts | 133° |
| 2026-05-04 09:20 | 46.86605 | 12.88616 | 28090 ft | 434 kts | 133° |
| 2026-05-04 09:20 | 46.82600 | 12.95202 | 28077 ft | 430 kts | 133° |
| 2026-05-04 09:21 | 46.80631 | 12.98432 | 27889 ft | 424 kts | 133° |
| 2026-05-04 09:21 | 46.78689 | 13.01617 | 27538 ft | 415 kts | 133° |
| 2026-05-04 09:21 | 46.76779 | 13.04745 | 27111 ft | 410 kts | 133° |
| 2026-05-04 09:21 | 46.74893 | 13.07830 | 26670 ft | 405 kts | 133° |
| 2026-05-04 09:22 | 46.73030 | 13.10874 | 26238 ft | 401 kts | 133° |
| 2026-05-04 09:22 | 46.71183 | 13.13888 | 25812 ft | 397 kts | 133° |
| 2026-05-04 09:22 | 46.69355 | 13.16869 | 25390 ft | 393 kts | 133° |
| 2026-05-04 09:22 | 46.67539 | 13.19825 | 24965 ft | 390 kts | 133° |
| 2026-05-04 09:23 | 46.65742 | 13.22749 | 24553 ft | 386 kts | 134° |
| 2026-05-04 09:23 | 46.63953 | 13.25656 | 24130 ft | 383 kts | 134° |
| 2026-05-04 09:23 | 46.62203 | 13.28498 | 23736 ft | 381 kts | 133° |
| 2026-05-04 09:23 | 46.60416 | 13.31398 | 23226 ft | 378 kts | 133° |
| 2026-05-04 09:25 | 46.51594 | 13.53588 | 20409 ft | 357 kts | 116° |
| 2026-05-04 09:25 | 46.50595 | 13.56880 | 20022 ft | 354 kts | 116° |
| 2026-05-04 09:26 | 46.49603 | 13.60131 | 19630 ft | 351 kts | 117° |
| 2026-05-04 09:26 | 46.48611 | 13.63367 | 19247 ft | 348 kts | 118° |
| 2026-05-04 09:26 | 46.47643 | 13.66516 | 18875 ft | 345 kts | 116° |
| 2026-05-04 09:26 | 46.46656 | 13.69671 | 18509 ft | 341 kts | 120° |
| 2026-05-04 09:27 | 46.45452 | 13.72602 | 18090 ft | 336 kts | 127° |
| 2026-05-04 09:27 | 46.44174 | 13.75417 | 17688 ft | 333 kts | 126° |
| 2026-05-04 09:27 | 46.42894 | 13.78209 | 17308 ft | 331 kts | 127° |
| 2026-05-04 09:27 | 46.41626 | 13.80978 | 16905 ft | 328 kts | 126° |
| 2026-05-04 09:28 | 46.40375 | 13.83716 | 16542 ft | 325 kts | 126° |
| 2026-05-04 09:28 | 46.39133 | 13.86441 | 16152 ft | 323 kts | 127° |
| 2026-05-04 09:28 | 46.37898 | 13.89160 | 15801 ft | 323 kts | 127° |
| 2026-05-04 09:28 | 46.36660 | 13.91883 | 15441 ft | 325 kts | 127° |
| 2026-05-04 09:29 | 46.35413 | 13.94626 | 15059 ft | 329 kts | 127° |
| 2026-05-04 09:29 | 46.34146 | 13.97406 | 14681 ft | 333 kts | 126° |
| 2026-05-04 09:29 | 46.32870 | 14.00212 | 14295 ft | 333 kts | 125° |
| 2026-05-04 09:29 | 46.31606 | 14.02993 | 13916 ft | 329 kts | 124° |
| 2026-05-04 09:30 | 46.30351 | 14.05752 | 13515 ft | 327 kts | 127° |
| 2026-05-04 09:30 | 46.29104 | 14.08491 | 13114 ft | 324 kts | 126° |
| 2026-05-04 09:30 | 46.27884 | 14.11160 | 12718 ft | 321 kts | 126° |
| 2026-05-04 09:30 | 46.26655 | 14.13844 | 12369 ft | 319 kts | 126° |
| 2026-05-04 09:31 | 46.25405 | 14.16491 | 12065 ft | 317 kts | 128° |
| 2026-05-04 09:31 | 46.24170 | 14.18912 | 11728 ft | 314 kts | 129° |
| 2026-05-04 09:31 | 46.22866 | 14.21413 | 11404 ft | 310 kts | 129° |
| 2026-05-04 09:31 | 46.21573 | 14.23885 | 11047 ft | 308 kts | 129° |
| 2026-05-04 09:32 | 46.20289 | 14.26349 | 10687 ft | 306 kts | 129° |
| 2026-05-04 09:32 | 46.19021 | 14.28787 | 10452 ft | 300 kts | 129° |
| 2026-05-04 09:34 | 46.11184 | 14.43894 | 8781 ft | 274 kts | 129° |
| 2026-05-04 09:34 | 46.10042 | 14.46091 | 8497 ft | 274 kts | 129° |
| 2026-05-04 09:34 | 46.08531 | 14.49001 | 8091 ft | 274 kts | 128° |
| 2026-05-04 09:34 | 46.07793 | 14.50523 | 7895 ft | 274 kts | 127° |
| 2026-05-04 09:35 | 46.06726 | 14.52792 | 7587 ft | 273 kts | 126° |
| 2026-05-04 09:35 | 46.05677 | 14.55031 | 7298 ft | 273 kts | 127° |
| 2026-05-04 09:35 | 46.04595 | 14.57328 | 6934 ft | 276 kts | 127° |
| 2026-05-04 09:35 | 46.03523 | 14.59592 | 6602 ft | 279 kts | 127° |
| 2026-05-04 09:37 | 46.04874 | 14.74029 | 5697 ft | 236 kts | 17° |
| 2026-05-04 09:37 | 46.06456 | 14.74281 | 5491 ft | 226 kts | 345° |
| 2026-05-04 09:38 | 46.07881 | 14.73500 | 5247 ft | 216 kts | 320° |
| 2026-05-04 09:38 | 46.08903 | 14.72034 | 5082 ft | 202 kts | 302° |
| 2026-05-04 09:38 | 46.09743 | 14.70410 | 4804 ft | 200 kts | 303° |
| 2026-05-04 09:38 | 46.10556 | 14.68822 | 4585 ft | 196 kts | 302° |
| 2026-05-04 09:39 | 46.11352 | 14.67247 | 4338 ft | 193 kts | 303° |
| 2026-05-04 09:39 | 46.12117 | 14.65680 | 4129 ft | 191 kts | 302° |
| 2026-05-04 09:39 | 46.12905 | 14.64149 | 4035 ft | 190 kts | 303° |
| 2026-05-04 09:39 | 46.13672 | 14.62685 | 3983 ft | 175 kts | 303° |
| 2026-05-04 09:40 | 46.14359 | 14.61367 | 3969 ft | 155 kts | 303° |
| 2026-05-04 09:40 | 46.15010 | 14.60159 | 3889 ft | 153 kts | 304° |
| 2026-05-04 09:40 | 46.15661 | 14.58919 | 3433 ft | 155 kts | 303° |
| 2026-05-04 09:40 | 46.16293 | 14.57691 | 3024 ft | 150 kts | 302° |
| 2026-05-04 09:41 | 46.16885 | 14.56479 | 2723 ft | 143 kts | 303° |
| 2026-05-04 09:42 | 46.21183 | 14.48079 | 1372 ft | 153 kts | 306° |
| 2026-05-04 09:43 | 46.21810 | 14.46858 | 1222 ft | 145 kts | 306° |
| 2026-05-04 09:43 | 46.22335 | 14.45828 | 1247 ft | 106 kts | 307° |
| 2026-05-04 09:43 | 46.22680 | 14.45153 | 1256 ft | 61 kts | 306° |
| 2026-05-04 09:43 | 46.22863 | 14.44794 | 1267 ft | 38 kts | 306° |
| 2026-05-04 09:44 | 46.23011 | 14.44505 | 1270 ft | 34 kts | 307° |
| 2026-05-04 09:44 | 46.23142 | 14.44250 | 1277 ft | 30 kts | 306° |
| 2026-05-04 09:44 | 46.23295 | 14.44081 | 1286 ft | 24 kts | 347° |
| 2026-05-04 09:46 | 46.23167 | 14.44962 | 1263 ft | 1 kts | 55° |
| 2026-05-04 09:46 | 46.23140 | 14.45043 | 1259 ft | 18 kts | 126° |
| 2026-05-04 09:46 | 46.23060 | 14.45200 | 1267 ft | 20 kts | 127° |
| 2026-05-04 09:47 | 46.23007 | 14.45304 | 1263 ft | 3 kts | 121° |
| 2026-05-04 09:47 | 46.23015 | 14.45333 | 1264 ft | 3 kts | 47° |
| 2026-05-04 09:49 | 46.23049 | 14.45370 | 1257 ft | 0 kts | 36° |